Hawthorne, NJ

6:54 PM EST on December 04, 2016 (GMT -0500)
| | Change Station
Active Advisory: Special Statement

Elev -9999 ft 0.00 °N, 0.00 °E | Updated

Mostly Cloudy
Mostly Cloudy
38 °F
Feels Like 38 °F
N
2
Wind Variable Wind from NE
Gusts mph

Today
High -- | Low -- °F
--% Chance of Precip.
Yesterday
High -- | Low -- °F
Precip. -- in
Pressure 30.22 in
Visibility 10.0 miles
Clouds Clear
Dew Point 24 °F
Humidity 57%
Rainfall --
Snow Depth Not available.
7:05 AM 4:28 PM
Waxing Crescent, 26% visible
METAR KCDW 042253Z 00000KT 10SM CLR 04/M04 A3019 RMK AO2 SLP231 T00391044
Pressure 30.22 in
Visibility 10.0 miles
Clouds Clear
Dew Point 24 °F
Humidity 57%
Rainfall --
Snow Depth Not available.
7:05 AM 4:28 PM
Waxing Crescent, 26% visible
METAR KCDW 042253Z 00000KT 10SM CLR 04/M04 A3019 RMK AO2 SLP231 T00391044

10-Day Weather Forecast

Almanac

Astronomy

Dec. 04, 2016 Rise Set
Actual Time
Civil Twilight
Nautical Twilight
Astronomical Twilight
Moon
Length of Visible Light
Length of Day
Tomorrow will be .
, % of the Moon is Illuminated

Today's Extremes

State Highs State Lows

Community

WunderPhotos

Upload Photos

1,955,703 photos uploaded!

WunderBlog® & News

Nearby

Air Quality

  Air Quality AQ Index Pollutant
Not available.

Snow Depth

Station Depth Elevation

Earthquake Activity

City Distance Mag. Time & Date
Minimum magnitude displayed is 2.5.

Coastal Water Temperatures

Place Temperature

Stations

Nearby Weather Stations

Station Location Temp. Windchill Dew Point Humidity Wind Precip. Elev Updated Type
                   

Watches & Warnings

Special Statement
Issued: 2:41 PM EST Dec. 4, 2016 – National Weather Service

... Slippery conditions possible early Monday morning...

A mixture of light rain and snow will overspread the region after
midnight. A light accumulation of slush is expected especially at
the higher elevations. The precipitation will change to plain
rain by just after sunrise and end by late morning.


Jst


241 PM EST sun Dec 4 2016

... Slippery conditions possible early Monday morning...

A mixture of light rain and snow will overspread the region after
midnight. A light accumulation of slush is expected especially at
the higher elevations. The precipitation will change to plain
rain by just after sunrise and end by late morning.


Jst

241 PM EST sun Dec 4 2016

... Slippery conditions possible early Monday morning...

A mixture of light rain and snow will overspread the region after
midnight. A light accumulation of slush is expected especially at
the higher elevations. The precipitation will change to plain
rain by just after sunrise and end by late morning.


Jst